Ana Sayfa
METAR-TAF:

METAR-TAF

Havaalanları :

Luanda, Angola

Enlem: 08-51S, Boylam: 013-14E, yükseklik: 74 m

Güncel hava durumu gözlemi

Rapor saat 01:00 UTC de 25 dakika önce yapıldı.
Rüzgar değişken yönden 2 kt
Sıcaklık 27°C
Nem 79%
Basınç 1009 hPa
Görüş mesafesi 10 km veya daha fazla
2200 ft yükseklikte az bulutlu

METAR: FNLU 200100Z VRB02KT 9999 FEW022 27/23 Q1009 NOSIG

Saat: 02:25 (01:25 UTC)

Tahmin

Ayın 20'si saat 00 UTC'den ayın 21'si saat 06 UTC'ye kadar geçerli Tahmin
Rüzgar değişken yönden 2 kt
Görüş mesafesi: 9000 m
2200 ft yükseklikte az bulutlu
Dönüşüyor
ayın 20'si saat 04 UTC'den ayın 20'si saat 06 UTC'ye kadar
Rüzgar doğudan 6 kt
Görüş mesafesi: 8000 m
Geçici
ayın 20'si saat 13 UTC'den ayın 20'si saat 19 UTC'ye kadar
Rüzgar batıdan 8 kt
Görüş mesafesi 10 km veya daha fazla

TAF: FNLU 2000/2106 VRB02KT 9000 FEW022 BECMG 2004/2006 10006KT 8000 TEMPO 2013/2019 28008KT 9999 NSC

4.000'den fazla havaalanı için hava durumu gözlemleri ve tahminleri (METAR ve TAF raporları).

Kullanılabilir istasyonlar harita üzerinde sarı ve kırmızı noktalarla gösterilir.

İstasyonun adını görmek için fareyi noktanın üzerinde gezdirin.

Sonrasında hava gözlem ve tahminlerini görmek için tıklayın.

Haritayı değiştirmek için: yaklaştırmak için siyah artı işaretli yeşil düğmeye ve uzaklaştırmak için de eksi işaretli düğmeye hızla tıklayın; bitişik haritalar için yeşil okları kullanın.


METAR-TAF: